Alyeska Resort
Hourly Weather - Base Weather Site
ALY_BASE_HR 9/21/2014
CLICK TO VIEW GRAPH!!

        DATE  TIME   Air  BATT   H2o   H2o   Rel
                    Temp  Volt  Inch Since  Hum%
                      F   AVG   1HR  0600   AVG

   9/21/2014 15:00    53 13.64  0.00  0.00    71
   9/21/2014 14:00    52 13.63  0.00  0.00    74
   9/21/2014 13:00    53 13.67  0.00  0.00    73
   9/21/2014 12:00    50 13.74  0.00  0.00    84
   9/21/2014 11:00    48 13.78  0.00  0.00    91
   9/21/2014 10:00    46 13.79  0.00  0.00    94
   9/21/2014 09:00    46 13.79  0.00  0.00    93
   9/21/2014 08:00    46 13.79  0.00  0.00    94
   9/21/2014 07:00    46 13.79  0.00  0.00    94
   9/21/2014 06:00    46 13.80  0.00  0.00    94
   9/21/2014 05:00    45 13.80  0.00  0.00    94
   9/21/2014 04:00    45 13.80  0.00  0.00    94
   9/21/2014 03:00    45 13.80  0.00  0.00    93
   9/21/2014 02:00    45 13.79  0.00  0.00    94
   9/21/2014 01:00    46 13.79  0.00  0.00    94
   9/20/2014 24:00    46 13.78  0.00  0.00    92
   9/20/2014 23:00    46 13.75  0.00  0.00    90
   9/20/2014 22:00    48 13.71  0.00  0.00    89
   9/20/2014 21:00    49 13.68  0.00  0.00    88
   9/20/2014 20:00    51 13.64  0.00  0.00    85
   9/20/2014 19:00    53 13.60  0.00  0.00    77
   9/20/2014 18:00    55 13.58  0.00  0.00    72
   9/20/2014 17:00    55 13.59  0.00  0.00    72
   9/20/2014 16:00    55 13.59  0.00  0.00    69


CLICK TO VIEW GRAPH!!